x

San Clemente Basin - 27nm Se Of San Clemente Is, Ca (46086) Wave Buoy

2:50pm - Thu 16th Aug 2018 All times are PDT. -7 hours from GMT.

  • Sig Wave height 3.9ft
  • Swell Direction
  • Peak Period 17s
  • Average Period 9s
  • Wind
    11mph, 13mph gusts
  • Sea Temp 74°f
  • Air Temp 71°f
  • Sea Pressure 1016.3mb
  • San Clemente Basin - 27nm Se Of San Clemente Is, Ca
  • San Clemente Basin - 27nm Se Of San Clemente Is, Ca

More Historic Weather Station data

Upgrade to MSW Pro to gain access to the past 30 days of data for over 8000 Wavebouys and Weather Stations around the globe.

Join

Comparision Forecast

View Surf forecast
   
Thu 08/16 2:50pm 4ft 17s 9s 11 13 mph 1016.3mb 74f 71f
1:50pm 3.5ft 19s 9s 9 11 mph 1016.4mb 74f 71f
12:50pm 3.5ft 17s 9s 9 11 mph 1016.7mb 74f 71f
11:50am 4ft 19s 9s 9 11 mph 1016.9mb 74f 71f
10:50am 3.5ft 13s 8s 4 7 mph 1017mb 74f 70f
9:50am 4ft 14s 8s 4 4 mph 1016.9mb 73f 70f
8:50am 4ft 19s 7s 7 7 mph 1016.5mb 74f 70f
7:50am 4ft 19s 7s 4 7 mph 1016.1mb 74f 71f
6:50am 4.5ft 14s 7s 4 7 mph 1015.8mb 74f 70f
5:50am 4.5ft 14s 7s 4 7 mph 1015.2mb 74f 71f
4:50am 4.5ft 14s 7s 2 2 mph 1014.2mb 75f 70f
3:50am 4.5ft 14s 7s 4 7 mph 1014.1mb 75f 71f
2:50am 4ft 14s 7s 7 7 mph 1013.9mb 75f 71f
1:50am 4.5ft 14s 8s 9 11 mph 1013.8mb 75f 71f
12:50am 3.5ft 14s 8s 4 7 mph 1014.1mb 75f 71f
Wed 08/15 11:50pm 3.5ft 14s 7s 4 7 mph 1014.1mb 75f 71f
10:50pm 3.5ft 15s 7s 4 4 mph 1014.1mb 75f 71f
9:50pm 3ft 14s 6s 4 7 mph 1014mb 75f 71f
8:50pm 3.5ft 14s 7s 7 9 mph 1013.5mb 75f 70f
7:50pm 4ft 14s 7s 9 11 mph 1012.8mb 75f 71f
6:50pm 4ft 14s 7s 9 13 mph 1012.3mb 75f 71f
5:50pm 3.5ft 15s 6s 9 13 mph 1012.4mb 75f 70f
4:50pm 4ft 15s 7s 9 11 mph 1012.9mb 75f 70f
3:50pm 4ft 14s 7s 11 13 mph 1012.7mb 75f 69f
2:50pm 4ft 14s 7s 11 16 mph 1012.9mb 75f 70f
1:50pm 3.5ft 14s 8s 9 11 mph 1013.6mb 75f 70f
12:50pm 3.5ft 15s 7s 9 11 mph 1013.7mb 75f 70f
11:50am 3.5ft 14s 7s 7 9 mph 1013.8mb 75f 70f
10:50am 3.5ft 15s 7s 7 9 mph 1013.9mb 75f 69f
9:50am 4ft 14s 7s 7 9 mph 1014mb 75f 69f
8:50am 3.5ft 14s 6s 7 9 mph 1014mb 76f 69f
7:50am 4.5ft 14s 7s 7 9 mph 1013.4mb 75f 69f
6:50am 4.5ft 15s 7s 7 9 mph 1013.1mb 75f 69f
5:50am 4ft 14s 6s 9 11 mph 1012.4mb 75f 69f
4:50am 4ft 14s 7s 9 11 mph 1012.2mb 75f 69f
3:50am 4ft 14s 7s 7 9 mph 1012.1mb 75f 69f
2:50am 3.5ft 14s 7s 7 11 mph 1012.1mb 75f 69f
1:50am 3.5ft 14s 7s 7 13 mph 1012.1mb 75f 69f
12:50am 3.5ft 14s 7s 4 7 mph 1012.5mb 76f 69f
Tue 08/14 11:50pm 3.5ft 13s 6s 4 9 mph 1012.6mb 76f 69f
10:50pm 3.5ft 14s 6s 7 11 mph 1012.3mb 76f 69f
9:50pm 3.5ft 14s  -  9 13 mph 1012.3mb 76f 69f
8:50pm 3.5ft 14s 6s 11 13 mph 1011.7mb 76f 69f
7:50pm 3.5ft 15s 6s 11 13 mph 1011.3mb 76f 69f
6:50pm 4ft 14s 6s 11 13 mph 1010.9mb 76f 70f
5:50pm 4ft 14s 6s 13 16 mph 1011mb 76f 69f
4:50pm 3.5ft 15s 6s 13 16 mph 1011.1mb 76f 70f
3:50pm 3.5ft 15s 7s 13 16 mph 1011.5mb 76f 69f
12:50pm 3.5ft 15s 8s 7 11 mph 1013.2mb 76f 70f
11:50am 3.5ft 15s 7s 7 9 mph 1013.5mb 76f 70f
10:50am 3.5ft 15s 8s 4 7 mph 1013.7mb 76f 70f
9:50am 3.5ft 14s 8s 4 7 mph 1013.7mb 76f 70f
8:50am 3.5ft 15s 8s 7 9 mph 1013.4mb 76f 70f
7:50am 4ft 15s 8s 4 9 mph 1013.3mb 76f 70f
6:50am 3.5ft 15s 7s 4 9 mph 1012.8mb 76f 70f
5:50am 4ft 15s 7s 9 11 mph 1012.4mb 76f 70f
4:50am 3.5ft 15s 7s 7 9 mph 1012.5mb 76f 70f
3:50am 3.5ft 15s 7s 4 7 mph 1012.5mb 76f 70f
2:50am 3.5ft 14s 6s 7 9 mph 1012.8mb 76f 70f
1:50am 4ft 15s 7s 7 9 mph 1013.1mb 76f 71f
12:50am 3.5ft 14s 6s 4 7 mph 1013.5mb 76f 70f
Mon 08/13 11:50pm 4.5ft 15s 7s 9 11 mph 1013.6mb 76f 71f
10:50pm 4.5ft 15s 7s 9 11 mph 1013.6mb 76f 71f
9:50pm 4ft 15s 6s 11 13 mph 1013.5mb 76f 71f
8:50pm 4ft 15s 6s 13 16 mph 1013.2mb 76f 71f
7:50pm 4ft 15s 6s 13 18 mph 1012.6mb 76f 71f
6:50pm 4ft 15s 6s 13 18 mph 1012.5mb 76f 71f
5:50pm 4ft 16s 6s 13 16 mph 1012.9mb 76f 72f
4:50pm 4.5ft 15s 7s 13 18 mph 1013.1mb 76f 72f
2:50pm 4ft 15s 8s 11 16 mph 1014.3mb 76f 72f
1:50pm 4ft 15s 7s 11 13 mph 1014.8mb 76f 71f
12:50pm 3.5ft 16s 8s 9 11 mph 1015.4mb 76f 71f
11:50am 3.5ft 16s 8s 9 11 mph 1015.7mb 75f 71f
10:50am 4ft 15s 8s 9 11 mph 1016mb 75f 71f
9:50am 4ft 15s 8s 9 11 mph 1015.7mb 75f 71f
8:50am 4ft 16s 8s 9 11 mph 1015.4mb 75f 71f
7:50am 4ft 16s 7s 9 11 mph 1015.5mb 74f 71f
6:50am 4.5ft 16s 8s 7 9 mph 1015.6mb 74f 71f
5:50am 4.5ft 16s 8s 9 11 mph 1015.2mb 74f 71f
3:50am 4.5ft 16s 8s 7 9 mph 1014.6mb 74f 71f
2:50am 4.5ft 16s 7s 7 9 mph 1014.8mb 74f 71f
1:50am 4.5ft 10s 7s 7 9 mph 1015mb 74f 71f
12:50am 4.5ft 16s 7s 7 9 mph 1015mb 74f 71f
Sun 08/12 11:50pm 3.5ft 9s 6s 9 11 mph 1014.8mb 74f 71f